Time;durP1;ratioP1;P1;durP2;ratioP2;P2;SDS_P1;SDS_P2;PMS_P1;PMS_P2;Temp;Humidity;BMP_temperature;BMP_pressure;BME280_temperature;BME280_humidity;BME280_pressure;Samples;Min_cycle;Max_cycle;Signal;HPM_P1;HPM_P2
2022/10/18 00:01:55;;;;;;;;;;;11.40;60.60;;;;;;5045713;27;87229;-36
2022/10/18 00:04:20;;;;;;;;;;;11.40;60.70;;;;;;5048178;28;87954;-36
2022/10/18 00:06:46;;;;;;;;;;;11.40;60.60;;;;;;5045501;28;87431;-36
2022/10/18 00:09:11;;;;;;;;;;;11.40;60.70;;;;;;5045073;28;88200;-36
2022/10/18 00:11:37;;;;;;;;;;;11.30;60.70;;;;;;5045296;28;87235;-36
2022/10/18 00:14:03;;;;;;;;;;;11.30;60.70;;;;;;5044787;28;87929;-36
2022/10/18 00:16:28;;;;;;;;;;;11.30;60.70;;;;;;5045203;28;88173;-37
2022/10/18 00:18:54;;;;;;;;;;;11.40;60.60;;;;;;5045208;28;87034;-36
2022/10/18 00:21:20;;;;;;;;;;;11.40;60.40;;;;;;5045179;28;87016;-36
2022/10/18 00:23:47;;;;;;;;;;;11.40;60.70;;;;;;5044446;28;88245;-36
2022/10/18 00:26:13;;;;;;;;;;;11.30;60.60;;;;;;5047610;28;87634;-35
2022/10/18 00:28:39;;;;;;;;;;;11.40;60.60;;;;;;5044773;27;88209;-36
2022/10/18 00:31:09;;;;;;;;;;;11.30;60.50;;;;;;5045278;28;86345;-36
2022/10/18 00:33:34;;;;;;;;;;;11.30;60.40;;;;;;5044883;28;87037;-36
2022/10/18 00:36:00;;;;;;;;;;;11.30;60.50;;;;;;5044514;28;87556;-36
2022/10/18 00:38:25;;;;;;;;;;;11.30;60.50;;;;;;5044349;28;88174;-37
2022/10/18 00:40:51;;;;;;;;;;;11.30;60.40;;;;;;5044746;28;87914;-36
2022/10/18 00:43:17;;;;;;;;;;;11.30;60.40;;;;;;5044360;28;88017;-36
2022/10/18 00:45:42;;;;;;;;;;;11.30;60.50;;;;;;5047644;28;87048;-36
2022/10/18 00:48:08;;;;;;;;;;;11.30;60.30;;;;;;5044302;28;87122;-36
2022/10/18 00:50:34;;;;;;;;;;;11.20;60.40;;;;;;5044603;28;87126;-36
2022/10/18 00:53:01;;;;;;;;;;;11.20;60.40;;;;;;5044464;28;87420;-37
2022/10/18 00:55:27;;;;;;;;;;;11.20;60.50;;;;;;5044620;28;87223;-37
2022/10/18 00:57:53;;;;;;;;;;;11.20;60.40;;;;;;5044614;28;87134;-35
2022/10/18 01:00:19;;;;;;;;;;;11.20;60.40;;;;;;5044203;28;87545;-37
2022/10/18 01:02:45;;;;;;;;;;;11.20;61.10;;;;;;5043413;28;88162;-36
2022/10/18 01:05:12;;;;;;;;;;;11.20;60.40;;;;;;5044548;28;87028;-36
2022/10/18 01:07:43;;;;;;;;;;;11.20;60.50;;;;;;5046763;28;87420;-35
2022/10/18 01:10:18;;;;;;;;;;;11.20;60.20;;;;;;5044425;28;87125;-37
2022/10/18 01:12:51;;;;;;;;;;;11.10;60.20;;;;;;5044453;28;87283;-36
2022/10/18 01:15:17;;;;;;;;;;;11.20;60.40;;;;;;5043977;28;88210;-36
2022/10/18 01:17:48;;;;;;;;;;;11.10;60.40;;;;;;5044166;28;87330;-36
2022/10/18 01:20:19;;;;;;;;;;;11.10;60.40;;;;;;5044462;28;87439;-36
2022/10/18 01:22:53;;;;;;;;;;;11.10;60.30;;;;;;5043829;28;88131;-36
2022/10/18 01:25:37;;;;;;;;;;;11.10;60.30;;;;;;5044380;28;87069;-36
2022/10/18 01:28:21;;;;;;;;;;;11.10;60.30;;;;;;5043512;27;87979;-36
2022/10/18 01:31:06;;;;;;;;;;;11.00;60.30;;;;;;5046677;27;88080;-36
2022/10/18 01:33:35;;;;;;;;;;;11.00;60.20;;;;;;5035744;28;87395;-36
2022/10/18 01:36:21;;;;;;;;;;;11.00;60.00;;;;;;5043740;28;88183;-36
2022/10/18 01:38:48;;;;;;;;;;;11.00;60.30;;;;;;5035392;28;87218;-36
2022/10/18 01:41:15;;;;;;;;;;;11.00;60.10;;;;;;5043222;27;87323;-36
2022/10/18 01:43:41;;;;;;;;;;;10.90;60.20;;;;;;5043520;28;87531;-35
2022/10/18 01:46:08;;;;;;;;;;;11.00;60.40;;;;;;5044248;28;86381;-36
2022/10/18 01:48:36;;;;;;;;;;;11.00;60.40;;;;;;5043843;28;86954;-36
2022/10/18 01:51:02;;;;;;;;;;;10.90;60.20;;;;;;5043323;28;88037;-35
2022/10/18 01:53:29;;;;;;;;;;;10.90;60.30;;;;;;5045762;28;88174;-36
2022/10/18 01:56:07;;;;;;;;;;;10.90;60.20;;;;;;5042848;28;88304;-36
2022/10/18 01:58:41;;;;;;;;;;;10.90;60.30;;;;;;5043648;28;87151;-36
2022/10/18 02:01:17;;;;;;;;;;;10.90;60.10;;;;;;5043321;27;87440;-36
2022/10/18 02:03:44;;;;;;;;;;;10.90;60.20;;;;;;5043164;28;88072;-36
2022/10/18 02:06:18;;;;;;;;;;;10.90;60.20;;;;;;5043276;28;87119;-36
2022/10/18 02:08:51;;;;;;;;;;;10.90;60.20;;;;;;5043509;27;87097;-36
2022/10/18 02:11:17;;;;;;;;;;;10.80;60.10;;;;;;5043722;28;87359;-36
2022/10/18 02:13:42;;;;;;;;;;;10.80;60.10;;;;;;5043457;28;87130;-35
2022/10/18 02:16:13;;;;;;;;;;;10.80;60.20;;;;;;5045975;28;87416;-36
2022/10/18 02:18:40;;;;;;;;;;;10.80;60.80;;;;;;5042602;27;88014;-37
2022/10/18 02:21:07;;;;;;;;;;;10.80;60.20;;;;;;5043207;27;88442;-36
2022/10/18 02:23:33;;;;;;;;;;;10.80;60.00;;;;;;5042301;28;87272;-36
2022/10/18 02:25:59;;;;;;;;;;;10.70;60.10;;;;;;5043286;28;87041;-36
2022/10/18 02:28:25;;;;;;;;;;;10.80;60.10;;;;;;5043242;28;87780;-36
2022/10/18 02:30:56;;;;;;;;;;;10.80;60.10;;;;;;5042682;28;88364;-35
2022/10/18 02:33:26;;;;;;;;;;;10.70;60.10;;;;;;5043015;28;86949;-36
2022/10/18 02:35:53;;;;;;;;;;;10.70;60.20;;;;;;5046334;27;87045;-35
2022/10/18 02:38:21;;;;;;;;;;;10.70;60.10;;;;;;5043070;28;87122;-36
2022/10/18 02:40:46;;;;;;;;;;;10.70;60.10;;;;;;5042717;27;87526;-35
2022/10/18 02:43:12;;;;;;;;;;;10.70;60.10;;;;;;5041899;28;88580;-36
2022/10/18 02:45:38;;;;;;;;;;;10.60;60.50;;;;;;5042869;28;87102;-36
2022/10/18 02:48:03;;;;;;;;;;;10.70;60.00;;;;;;5042915;27;86877;-36
2022/10/18 02:50:29;;;;;;;;;;;10.60;60.00;;;;;;5042813;28;88146;-35
2022/10/18 02:52:54;;;;;;;;;;;10.60;60.00;;;;;;5041691;28;87097;-35
2022/10/18 02:55:20;;;;;;;;;;;10.60;60.00;;;;;;5042871;28;87397;-37
2022/10/18 02:57:45;;;;;;;;;;;10.60;59.90;;;;;;5045462;28;87885;-36
2022/10/18 03:00:11;;;;;;;;;;;10.60;60.00;;;;;;5043031;28;86844;-35
2022/10/18 03:02:37;;;;;;;;;;;10.60;60.10;;;;;;5042336;28;88259;-36
2022/10/18 03:05:02;;;;;;;;;;;10.50;59.90;;;;;;5042818;28;87103;-35
2022/10/18 03:07:28;;;;;;;;;;;10.50;60.00;;;;;;5042015;27;88371;-35
2022/10/18 03:09:53;;;;;;;;;;;10.50;60.10;;;;;;5042225;28;87985;-36
2022/10/18 03:12:19;;;;;;;;;;;10.50;60.10;;;;;;5042635;28;87163;-36
2022/10/18 03:14:44;;;;;;;;;;;10.50;60.00;;;;;;5042539;27;87358;-36
2022/10/18 03:17:10;;;;;;;;;;;10.50;60.00;;;;;;5042032;28;88193;-36
2022/10/18 03:19:37;;;;;;;;;;;10.50;60.10;;;;;;5045337;28;87132;-36
2022/10/18 03:22:03;;;;;;;;;;;10.50;60.00;;;;;;5041932;28;88016;-36
2022/10/18 03:24:28;;;;;;;;;;;10.40;60.00;;;;;;5042335;28;86407;-35
2022/10/18 03:26:54;;;;;;;;;;;10.40;60.00;;;;;;5042603;28;87035;-36
2022/10/18 03:29:19;;;;;;;;;;;10.40;60.00;;;;;;5042137;28;88149;-36
2022/10/18 03:31:45;;;;;;;;;;;10.40;60.00;;;;;;5041686;28;88576;-36
2022/10/18 03:34:10;;;;;;;;;;;10.40;60.00;;;;;;5042427;28;88530;-36
2022/10/18 03:36:37;;;;;;;;;;;10.40;59.90;;;;;;5042036;28;88095;-36
2022/10/18 03:39:03;;;;;;;;;;;10.30;60.00;;;;;;5042340;28;87027;-36
2022/10/18 03:41:28;;;;;;;;;;;10.30;59.80;;;;;;5044854;27;86897;-35
2022/10/18 03:43:54;;;;;;;;;;;10.30;59.90;;;;;;5042437;28;87102;-36
2022/10/18 03:46:19;;;;;;;;;;;10.30;59.90;;;;;;5042182;28;87439;-36
2022/10/18 03:48:45;;;;;;;;;;;10.30;59.90;;;;;;5042322;28;87294;-36
2022/10/18 03:51:10;;;;;;;;;;;10.20;59.80;;;;;;5042167;28;87136;-36
2022/10/18 03:53:36;;;;;;;;;;;10.30;59.90;;;;;;5042287;28;87430;-36
2022/10/18 03:56:01;;;;;;;;;;;10.20;59.90;;;;;;5040992;28;89111;-36
2022/10/18 03:58:27;;;;;;;;;;;10.20;59.90;;;;;;5042013;28;87102;-36
2022/10/18 04:00:52;;;;;;;;;;;10.20;59.90;;;;;;5041844;28;87434;-36
2022/10/18 04:03:19;;;;;;;;;;;10.20;60.00;;;;;;5044678;27;88316;-36
2022/10/18 04:05:45;;;;;;;;;;;10.20;60.00;;;;;;5045504;27;87049;-36
2022/10/18 04:08:10;;;;;;;;;;;10.20;59.80;;;;;;5045085;28;87765;-36
2022/10/18 04:10:37;;;;;;;;;;;10.20;59.80;;;;;;5045310;28;87239;-36
2022/10/18 04:13:03;;;;;;;;;;;10.20;59.90;;;;;;5045815;27;87374;-36
2022/10/18 04:15:28;;;;;;;;;;;10.20;59.80;;;;;;5044948;28;88103;-36
2022/10/18 04:17:55;;;;;;;;;;;10.10;59.80;;;;;;5045154;28;87114;-36
2022/10/18 04:20:21;;;;;;;;;;;10.10;60.00;;;;;;5044625;27;88383;-36
2022/10/18 04:22:47;;;;;;;;;;;10.10;59.80;;;;;;5044810;28;88109;-36
2022/10/18 04:25:12;;;;;;;;;;;10.10;60.00;;;;;;5047798;28;87182;-36
2022/10/18 04:27:38;;;;;;;;;;;10.00;59.90;;;;;;5044557;28;88243;-36
2022/10/18 04:30:04;;;;;;;;;;;10.10;59.80;;;;;;5045097;28;87072;-36
2022/10/18 04:32:29;;;;;;;;;;;10.00;59.80;;;;;;5044919;28;87508;-36
2022/10/18 04:34:55;;;;;;;;;;;10.00;60.00;;;;;;5044690;28;88125;-36
2022/10/18 04:37:20;;;;;;;;;;;10.00;59.90;;;;;;5045547;28;86392;-35
2022/10/18 04:39:47;;;;;;;;;;;10.00;59.80;;;;;;5045220;28;87575;-36
2022/10/18 04:42:13;;;;;;;;;;;10.00;59.90;;;;;;5044531;28;87987;-36
2022/10/18 04:44:38;;;;;;;;;;;10.00;60.00;;;;;;5047161;28;87933;-36
2022/10/18 04:47:04;;;;;;;;;;;10.00;59.90;;;;;;5044318;28;88182;-36
2022/10/18 04:49:29;;;;;;;;;;;9.90;59.90;;;;;;5044821;28;87119;-36
2022/10/18 04:51:55;;;;;;;;;;;9.90;60.00;;;;;;5044708;28;87417;-36
2022/10/18 04:54:20;;;;;;;;;;;9.90;59.90;;;;;;5044399;28;88219;-35
2022/10/18 04:56:46;;;;;;;;;;;9.90;59.90;;;;;;5044884;28;87138;-36
2022/10/18 04:59:11;;;;;;;;;;;9.90;60.00;;;;;;5044861;28;87376;-36
2022/10/18 05:01:37;;;;;;;;;;;9.80;59.90;;;;;;5044215;28;86882;-35
2022/10/18 05:04:02;;;;;;;;;;;9.90;59.90;;;;;;5044462;28;87080;-36
2022/10/18 05:06:28;;;;;;;;;;;9.90;59.80;;;;;;5047196;28;86996;-36
2022/10/18 05:08:53;;;;;;;;;;;9.80;59.80;;;;;;5043723;28;88025;-36
2022/10/18 05:11:19;;;;;;;;;;;9.80;59.70;;;;;;5044450;28;88445;-35
2022/10/18 05:13:45;;;;;;;;;;;9.90;59.80;;;;;;5044173;28;87932;-36
2022/10/18 05:16:10;;;;;;;;;;;9.80;59.80;;;;;;5043195;27;86963;-36
2022/10/18 05:18:36;;;;;;;;;;;9.80;59.90;;;;;;5044335;28;87580;-35
2022/10/18 05:21:01;;;;;;;;;;;9.80;59.80;;;;;;5043823;28;87992;-35
2022/10/18 05:23:27;;;;;;;;;;;9.80;59.90;;;;;;5043692;28;87164;-36
2022/10/18 05:25:52;;;;;;;;;;;9.80;59.80;;;;;;5044731;27;87296;-35
2022/10/18 05:28:18;;;;;;;;;;;9.70;59.70;;;;;;5046953;28;88128;-36
2022/10/18 05:30:43;;;;;;;;;;;9.70;59.80;;;;;;5044028;27;87173;-35
2022/10/18 05:33:09;;;;;;;;;;;9.70;59.80;;;;;;5043242;28;88983;-36
2022/10/18 05:35:34;;;;;;;;;;;9.70;59.90;;;;;;5044208;28;87083;-36
2022/10/18 05:38:04;;;;;;;;;;;9.70;59.80;;;;;;5044042;28;87421;-36
2022/10/18 05:40:30;;;;;;;;;;;9.70;59.70;;;;;;5043571;28;87718;-36
2022/10/18 05:42:56;;;;;;;;;;;9.70;59.70;;;;;;5044168;28;87177;-36
2022/10/18 05:45:21;;;;;;;;;;;9.70;59.70;;;;;;5043784;28;87455;-36
2022/10/18 05:47:47;;;;;;;;;;;9.70;59.70;;;;;;5043324;28;88145;-36
2022/10/18 05:50:12;;;;;;;;;;;9.70;59.70;;;;;;5047062;28;86382;-36
2022/10/18 05:52:38;;;;;;;;;;;9.70;59.80;;;;;;5043483;28;88137;-36
2022/10/18 05:55:04;;;;;;;;;;;9.70;59.70;;;;;;5043792;28;87083;-36
2022/10/18 05:57:29;;;;;;;;;;;9.70;59.70;;;;;;5043121;28;87932;-35
2022/10/18 05:59:55;;;;;;;;;;;9.70;59.60;;;;;;5043119;28;88063;-36
2022/10/18 06:02:20;;;;;;;;;;;9.60;59.60;;;;;;5043485;28;87149;-35
2022/10/18 06:04:46;;;;;;;;;;;9.70;59.70;;;;;;5043576;28;87391;-36
2022/10/18 06:07:11;;;;;;;;;;;9.60;59.50;;;;;;5043268;28;88158;-36
2022/10/18 06:09:37;;;;;;;;;;;9.60;59.60;;;;;;5043582;28;87158;-36
2022/10/18 06:12:03;;;;;;;;;;;9.60;59.80;;;;;;5046002;28;87404;-36
2022/10/18 06:14:29;;;;;;;;;;;9.60;59.80;;;;;;5043982;28;86303;-35
2022/10/18 06:16:55;;;;;;;;;;;9.60;59.80;;;;;;5043299;28;87008;-35
2022/10/18 06:19:21;;;;;;;;;;;9.50;59.70;;;;;;5042971;28;88034;-36
2022/10/18 06:21:47;;;;;;;;;;;9.60;59.80;;;;;;5042523;28;88069;-36
2022/10/18 06:24:12;;;;;;;;;;;9.60;59.80;;;;;;5042969;27;88282;-35
2022/10/18 06:26:38;;;;;;;;;;;9.60;59.80;;;;;;5042922;27;87999;-35
2022/10/18 06:29:03;;;;;;;;;;;9.50;59.80;;;;;;5043098;28;87120;-35
2022/10/18 06:31:29;;;;;;;;;;;9.50;59.80;;;;;;5042846;28;87478;-36
2022/10/18 06:33:55;;;;;;;;;;;9.60;59.90;;;;;;5045586;28;88479;-36
2022/10/18 06:36:21;;;;;;;;;;;9.50;59.70;;;;;;5043227;28;87343;-36
2022/10/18 06:38:47;;;;;;;;;;;9.50;59.80;;;;;;5043206;28;87616;-36
2022/10/18 06:41:12;;;;;;;;;;;9.50;59.80;;;;;;5042904;28;87091;-36
2022/10/18 06:43:38;;;;;;;;;;;9.50;59.90;;;;;;5042982;28;87033;-36
2022/10/18 06:46:05;;;;;;;;;;;9.60;59.80;;;;;;5041637;28;88967;-36
2022/10/18 06:48:31;;;;;;;;;;;9.50;59.90;;;;;;5042836;28;87018;-35
2022/10/18 06:50:57;;;;;;;;;;;9.50;60.00;;;;;;5042921;27;87038;-36
2022/10/18 06:53:24;;;;;;;;;;;9.50;59.90;;;;;;5045476;28;88358;-36
2022/10/18 06:55:49;;;;;;;;;;;9.50;60.00;;;;;;5042926;28;87155;-35
2022/10/18 06:58:15;;;;;;;;;;;9.50;60.00;;;;;;5042620;28;87194;-36
2022/10/18 07:00:40;;;;;;;;;;;9.40;60.10;;;;;;5042193;28;87127;-35
2022/10/18 07:03:06;;;;;;;;;;;9.40;60.30;;;;;;5043481;27;86362;-36
2022/10/18 07:05:31;;;;;;;;;;;9.40;60.50;;;;;;5042418;28;87055;-35
2022/10/18 07:07:57;;;;;;;;;;;9.40;60.30;;;;;;5042634;28;87112;-36
2022/10/18 07:10:23;;;;;;;;;;;9.40;60.40;;;;;;5042367;28;87825;-36
2022/10/18 07:12:48;;;;;;;;;;;9.40;60.40;;;;;;5042164;28;88470;-35
2022/10/18 07:15:14;;;;;;;;;;;9.40;60.30;;;;;;5045579;28;87158;-36
2022/10/18 07:17:40;;;;;;;;;;;9.30;60.40;;;;;;5042174;28;87988;-36
2022/10/18 07:20:06;;;;;;;;;;;9.30;60.60;;;;;;5042425;28;87189;-36
2022/10/18 07:22:32;;;;;;;;;;;9.30;60.60;;;;;;5042673;27;87259;-36
2022/10/18 07:24:58;;;;;;;;;;;9.40;60.40;;;;;;5041395;28;87867;-37
2022/10/18 07:27:23;;;;;;;;;;;9.40;60.50;;;;;;5042987;28;86341;-36
2022/10/18 07:29:49;;;;;;;;;;;9.40;60.50;;;;;;5042481;27;86885;-35
2022/10/18 07:32:14;;;;;;;;;;;9.40;60.50;;;;;;5041940;28;88209;-36
2022/10/18 07:34:40;;;;;;;;;;;9.40;60.50;;;;;;5041863;28;88011;-36
2022/10/18 07:37:06;;;;;;;;;;;9.30;60.60;;;;;;5044915;28;88340;-36
2022/10/18 07:39:31;;;;;;;;;;;9.40;60.60;;;;;;5044342;28;87169;-36
2022/10/18 07:41:57;;;;;;;;;;;9.30;60.70;;;;;;5045842;28;87281;-35
2022/10/18 07:44:22;;;;;;;;;;;9.30;60.80;;;;;;5045641;28;87957;-35
2022/10/18 07:46:48;;;;;;;;;;;9.30;60.80;;;;;;5045507;28;88419;-36
2022/10/18 07:49:13;;;;;;;;;;;9.30;60.80;;;;;;5045875;28;87517;-36
2022/10/18 07:51:39;;;;;;;;;;;9.30;60.90;;;;;;5045875;28;87428;-36
2022/10/18 07:54:04;;;;;;;;;;;9.30;60.90;;;;;;5045648;28;87118;-37
2022/10/18 07:56:30;;;;;;;;;;;9.30;61.00;;;;;;5045707;27;87289;-36
2022/10/18 07:58:55;;;;;;;;;;;9.30;61.00;;;;;;5047766;28;88971;-35
2022/10/18 08:01:22;;;;;;;;;;;9.30;61.00;;;;;;5044822;28;88334;-36
2022/10/18 08:03:47;;;;;;;;;;;9.30;61.00;;;;;;5045164;28;88092;-35
2022/10/18 08:06:15;;;;;;;;;;;9.30;61.00;;;;;;5045459;28;87112;-36
2022/10/18 08:08:41;;;;;;;;;;;9.30;61.10;;;;;;5045430;28;87421;-36
2022/10/18 08:11:11;;;;;;;;;;;9.30;61.10;;;;;;5045091;28;87780;-36
2022/10/18 08:13:36;;;;;;;;;;;9.30;61.10;;;;;;5045281;28;87571;-35
2022/10/18 08:16:03;;;;;;;;;;;9.30;61.30;;;;;;5045729;27;87425;-36
2022/10/18 08:18:29;;;;;;;;;;;9.30;61.30;;;;;;5045054;28;87147;-36
2022/10/18 08:20:55;;;;;;;;;;;9.30;61.30;;;;;;5048304;28;87193;-35
2022/10/18 08:23:20;;;;;;;;;;;9.30;61.30;;;;;;5043925;28;89340;-35
2022/10/18 08:25:46;;;;;;;;;;;9.30;61.30;;;;;;5045170;28;87005;-36
2022/10/18 08:28:12;;;;;;;;;;;9.30;61.30;;;;;;5045091;28;87415;-36
2022/10/18 08:30:38;;;;;;;;;;;9.30;61.40;;;;;;5044582;28;87899;-36
2022/10/18 08:33:03;;;;;;;;;;;9.30;61.40;;;;;;5045177;28;87147;-36
2022/10/18 08:35:30;;;;;;;;;;;9.40;61.40;;;;;;5045140;28;87450;-35
2022/10/18 08:37:56;;;;;;;;;;;9.30;61.30;;;;;;5044531;28;87894;-35
2022/10/18 08:40:22;;;;;;;;;;;9.40;61.40;;;;;;5045333;28;86588;-36
2022/10/18 08:42:47;;;;;;;;;;;9.40;61.30;;;;;;5047556;27;86851;-36
2022/10/18 08:45:13;;;;;;;;;;;9.40;61.40;;;;;;5044665;28;87149;-35
2022/10/18 08:47:40;;;;;;;;;;;9.40;61.50;;;;;;5044249;27;87761;-36
2022/10/18 08:50:18;;;;;;;;;;;9.40;61.40;;;;;;5043366;27;87513;-35
2022/10/18 08:52:49;;;;;;;;;;;9.40;61.50;;;;;;5044714;28;86890;-36
2022/10/18 08:55:20;;;;;;;;;;;9.40;61.70;;;;;;5044780;28;87371;-35
2022/10/18 08:57:46;;;;;;;;;;;9.40;61.60;;;;;;5044235;28;88280;-35
2022/10/18 09:00:19;;;;;;;;;;;9.40;61.50;;;;;;5044568;28;87606;-36
2022/10/18 09:02:50;;;;;;;;;;;9.40;61.50;;;;;;5047274;27;87355;-36
2022/10/18 09:05:23;;;;;;;;;;;9.40;61.60;;;;;;5045021;28;86403;-36
2022/10/18 09:07:52;;;;;;;;;;;9.40;61.70;;;;;;5044458;28;86965;-36
2022/10/18 09:10:29;;;;;;;;;;;9.40;61.70;;;;;;5043851;28;87227;-36
2022/10/18 09:13:19;;;;;;;;;;;9.40;61.70;;;;;;5043868;28;88053;-36
2022/10/18 09:15:50;;;;;;;;;;;9.40;61.70;;;;;;5044383;27;88333;-36
2022/10/18 09:18:22;;;;;;;;;;;9.40;61.50;;;;;;5044021;28;88481;-35
2022/10/18 09:21:10;;;;;;;;;;;9.40;61.70;;;;;;5044099;28;87124;-35
2022/10/18 09:23:39;;;;;;;;;;;9.50;61.60;;;;;;5037890;28;87490;-36
2022/10/18 09:26:04;;;;;;;;;;;9.40;61.80;;;;;;5046802;28;87141;-35
2022/10/18 09:28:33;;;;;;;;;;;9.50;61.80;;;;;;5044530;28;87481;-35
2022/10/18 09:31:28;;;;;;;;;;;9.50;61.70;;;;;;5044265;28;87305;-36
2022/10/18 09:34:19;;;;;;;;;;;9.50;61.70;;;;;;5034348;28;87101;-36
2022/10/18 09:36:45;;;;;;;;;;;9.50;61.60;;;;;;5041658;27;87333;-36
2022/10/18 09:39:12;;;;;;;;;;;9.60;61.70;;;;;;5043070;28;89176;-36
2022/10/18 09:41:58;;;;;;;;;;;9.50;61.70;;;;;;5043647;28;87619;-37
2022/10/18 09:44:23;;;;;;;;;;;9.60;61.70;;;;;;5043181;28;87327;-35
2022/10/18 09:46:52;;;;;;;;;;;9.60;61.70;;;;;;5043626;28;87996;-36
2022/10/18 09:49:28;;;;;;;;;;;9.60;61.60;;;;;;5046579;28;87125;-36
2022/10/18 09:51:53;;;;;;;;;;;9.60;61.60;;;;;;5043313;28;87923;-36
2022/10/18 09:54:22;;;;;;;;;;;9.70;61.50;;;;;;5043783;28;87215;-36
2022/10/18 09:56:55;;;;;;;;;;;9.60;61.60;;;;;;5044019;27;87310;-36
2022/10/18 09:59:28;;;;;;;;;;;9.70;61.70;;;;;;5043204;28;88161;-36
2022/10/18 10:01:54;;;;;;;;;;;9.70;61.70;;;;;;5042731;28;87081;-37
2022/10/18 10:04:19;;;;;;;;;;;9.60;61.70;;;;;;5043160;27;87904;-36
2022/10/18 10:06:49;;;;;;;;;;;9.60;61.90;;;;;;5043155;28;88090;-36
2022/10/18 10:09:16;;;;;;;;;;;9.60;62.00;;;;;;5043616;28;87091;-36
2022/10/18 10:11:46;;;;;;;;;;;9.60;61.90;;;;;;5046215;28;87377;-36
2022/10/18 10:14:11;;;;;;;;;;;9.60;62.00;;;;;;5043505;28;87075;-36
2022/10/18 10:16:48;;;;;;;;;;;9.60;62.10;;;;;;5043424;28;87685;-36
2022/10/18 10:19:18;;;;;;;;;;;9.60;62.00;;;;;;5042798;28;87946;-36
2022/10/18 10:21:43;;;;;;;;;;;9.70;61.80;;;;;;5043867;28;86336;-35
2022/10/18 10:24:17;;;;;;;;;;;9.70;61.70;;;;;;5042911;27;87179;-36
2022/10/18 10:26:43;;;;;;;;;;;9.80;61.70;;;;;;5043117;28;87249;-36
2022/10/18 10:29:27;;;;;;;;;;;9.80;61.50;;;;;;5042771;28;87946;-36
2022/10/18 10:32:02;;;;;;;;;;;9.80;61.40;;;;;;5043161;27;88178;-36
2022/10/18 10:34:28;;;;;;;;;;;9.90;61.40;;;;;;5045737;28;88513;-36
2022/10/18 10:36:54;;;;;;;;;;;9.90;61.50;;;;;;5043229;28;87427;-35
2022/10/18 10:39:20;;;;;;;;;;;9.80;61.60;;;;;;5042780;28;88181;-37
2022/10/18 10:41:47;;;;;;;;;;;9.80;61.70;;;;;;5043048;28;87048;-36
2022/10/18 10:44:15;;;;;;;;;;;9.90;61.70;;;;;;5042954;28;87457;-35
2022/10/18 10:46:40;;;;;;;;;;;9.90;61.50;;;;;;5042955;28;87399;-37
2022/10/18 10:49:15;;;;;;;;;;;9.80;61.80;;;;;;5043029;28;87132;-36
2022/10/18 10:51:42;;;;;;;;;;;9.90;61.70;;;;;;5042934;28;87549;-36
2022/10/18 10:54:20;;;;;;;;;;;9.90;61.60;;;;;;5041873;28;89232;-37
2022/10/18 10:56:52;;;;;;;;;;;9.90;61.80;;;;;;5045532;28;86996;-36
2022/10/18 10:59:19;;;;;;;;;;;9.90;61.70;;;;;;5042296;28;87985;-36
2022/10/18 11:01:48;;;;;;;;;;;9.90;61.80;;;;;;5042432;28;87105;-35
2022/10/18 11:04:26;;;;;;;;;;;9.90;61.70;;;;;;5042804;27;86953;-36
2022/10/18 11:07:10;;;;;;;;;;;9.90;61.80;;;;;;5042474;28;88354;-36
2022/10/18 11:09:44;;;;;;;;;;;10.00;61.50;;;;;;5042677;27;87270;-36
2022/10/18 11:12:22;;;;;;;;;;;10.00;61.40;;;;;;5043213;27;87203;-36
2022/10/18 11:15:08;;;;;;;;;;;10.00;61.30;;;;;;5044153;27;88229;-36
2022/10/18 11:17:46;;;;;;;;;;;10.00;61.30;;;;;;5049066;27;87358;-36
2022/10/18 11:20:26;;;;;;;;;;;10.10;61.40;;;;;;5045266;28;88919;-36
2022/10/18 11:23:12;;;;;;;;;;;10.10;61.40;;;;;;5045996;28;87112;-36
2022/10/18 11:25:37;;;;;;;;;;;10.10;61.40;;;;;;5045653;28;87464;-35
2022/10/18 11:28:09;;;;;;;;;;;10.20;61.40;;;;;;5045797;28;88140;-36
2022/10/18 11:30:54;;;;;;;;;;;10.10;61.40;;;;;;5045836;28;87711;-36
2022/10/18 11:33:31;;;;;;;;;;;10.10;61.40;;;;;;5046127;27;87585;-36
2022/10/18 11:36:03;;;;;;;;;;;10.20;61.40;;;;;;5045622;28;88129;-36
2022/10/18 11:38:38;;;;;;;;;;;10.20;61.90;;;;;;5046469;28;86315;-36
2022/10/18 11:41:13;;;;;;;;;;;10.20;61.30;;;;;;5048457;28;87522;-37
2022/10/18 11:43:45;;;;;;;;;;;10.20;61.20;;;;;;5045933;28;86975;-36
2022/10/18 11:46:17;;;;;;;;;;;10.30;61.20;;;;;;5045389;28;88000;-37
2022/10/18 11:48:45;;;;;;;;;;;10.30;61.20;;;;;;5045582;28;88003;-36
2022/10/18 11:51:22;;;;;;;;;;;10.30;61.10;;;;;;5045895;28;86880;-36
2022/10/18 11:53:57;;;;;;;;;;;10.30;61.10;;;;;;5045921;28;87061;-36
2022/10/18 11:56:24;;;;;;;;;;;10.30;61.20;;;;;;5045287;28;87210;-36
2022/10/18 11:58:49;;;;;;;;;;;10.40;61.20;;;;;;5045629;28;87085;-36
2022/10/18 12:01:22;;;;;;;;;;;10.40;61.10;;;;;;5045424;28;87487;-36
2022/10/18 12:04:09;;;;;;;;;;;10.40;61.10;;;;;;5048567;28;87296;-36
2022/10/18 12:06:39;;;;;;;;;;;10.40;61.10;;;;;;5045795;28;86900;-36
2022/10/18 12:09:23;;;;;;;;;;;10.40;61.00;;;;;;5043635;28;91197;-36
2022/10/18 12:11:54;;;;;;;;;;;10.40;61.00;;;;;;5044725;27;88179;-36
2022/10/18 12:14:25;;;;;;;;;;;10.50;61.00;;;;;;5045159;28;88358;-36
2022/10/18 12:16:52;;;;;;;;;;;10.50;61.10;;;;;;5044862;28;87248;-36
2022/10/18 12:19:23;;;;;;;;;;;10.50;61.00;;;;;;5045310;28;86886;-37
2022/10/18 12:21:50;;;;;;;;;;;10.50;60.90;;;;;;5044941;28;87048;-36
2022/10/18 12:24:18;;;;;;;;;;;10.50;61.00;;;;;;5044415;27;87803;-36
2022/10/18 12:26:47;;;;;;;;;;;10.50;61.00;;;;;;5048019;28;87046;-36
2022/10/18 12:29:15;;;;;;;;;;;10.50;60.90;;;;;;5045202;28;87143;-36
2022/10/18 12:31:46;;;;;;;;;;;10.60;60.90;;;;;;5045358;28;87150;-36
2022/10/18 12:34:35;;;;;;;;;;;10.60;60.90;;;;;;5045121;27;87172;-36
2022/10/18 12:37:11;;;;;;;;;;;10.60;60.90;;;;;;5038071;27;88918;-36
2022/10/18 12:39:48;;;;;;;;;;;10.60;60.80;;;;;;5044975;28;87416;-36
2022/10/18 12:42:17;;;;;;;;;;;10.70;61.20;;;;;;5045167;28;87613;-36
2022/10/18 12:44:43;;;;;;;;;;;10.70;60.90;;;;;;5044670;28;87922;-36
2022/10/18 12:47:19;;;;;;;;;;;10.70;60.80;;;;;;5045006;28;87020;-36
2022/10/18 12:49:53;;;;;;;;;;;10.70;60.90;;;;;;5047440;28;87459;-36
2022/10/18 12:52:21;;;;;;;;;;;10.70;60.80;;;;;;5044984;28;86881;-37
2022/10/18 12:55:19;;;;;;;;;;;10.70;61.00;;;;;;5045136;27;87520;-36
2022/10/18 12:57:50;;;;;;;;;;;10.70;60.80;;;;;;5020449;28;87986;-36
2022/10/18 13:00:28;;;;;;;;;;;10.70;61.20;;;;;;5044638;28;87144;-36
2022/10/18 13:03:19;;;;;;;;;;;10.80;61.20;;;;;;5043979;28;88597;-37
2022/10/18 13:05:50;;;;;;;;;;;10.80;61.00;;;;;;5043936;28;88230;-36
2022/10/18 13:08:36;;;;;;;;;;;10.80;61.20;;;;;;5044514;28;87110;-36
2022/10/18 13:11:11;;;;;;;;;;;10.80;61.10;;;;;;5047112;27;87708;-35
2022/10/18 13:13:40;;;;;;;;;;;10.80;61.10;;;;;;5044384;28;87075;-36
2022/10/18 13:16:13;;;;;;;;;;;10.80;61.40;;;;;;5044500;27;87571;-36
2022/10/18 13:19:08;;;;;;;;;;;10.90;61.40;;;;;;5044027;28;87180;-36
2022/10/18 13:21:45;;;;;;;;;;;10.90;61.50;;;;;;5034954;28;86323;-35
2022/10/18 13:24:18;;;;;;;;;;;10.90;61.20;;;;;;5044238;28;87142;-36
2022/10/18 13:27:14;;;;;;;;;;;10.90;61.00;;;;;;5043982;28;87697;-35
2022/10/18 13:29:46;;;;;;;;;;;10.90;61.40;;;;;;5005668;28;88178;-35
2022/10/18 13:32:21;;;;;;;;;;;11.00;61.70;;;;;;5044333;28;88356;-36
2022/10/18 13:34:46;;;;;;;;;;;11.00;61.70;;;;;;5046791;28;87955;-36
2022/10/18 13:37:12;;;;;;;;;;;11.00;61.80;;;;;;5043469;27;86960;-36
2022/10/18 13:39:38;;;;;;;;;;;11.00;61.50;;;;;;5043634;28;88044;-36
2022/10/18 13:42:13;;;;;;;;;;;11.10;61.60;;;;;;5043728;28;87069;-35
2022/10/18 13:44:39;;;;;;;;;;;11.10;61.50;;;;;;5043900;28;87192;-35
2022/10/18 13:47:04;;;;;;;;;;;11.10;61.70;;;;;;5043991;28;87204;-35
2022/10/18 13:49:38;;;;;;;;;;;11.10;61.60;;;;;;5043707;28;87090;-36
2022/10/18 13:52:22;;;;;;;;;;;11.10;61.50;;;;;;5043909;28;87634;-35
2022/10/18 13:55:07;;;;;;;;;;;11.10;61.70;;;;;;5042669;27;89240;-35
2022/10/18 13:57:32;;;;;;;;;;;11.20;61.70;;;;;;5046744;27;87031;-35
2022/10/18 13:59:57;;;;;;;;;;;11.20;61.60;;;;;;5043209;28;88001;-35
2022/10/18 14:02:33;;;;;;;;;;;11.20;61.40;;;;;;5043428;28;87196;-36
2022/10/18 14:04:58;;;;;;;;;;;11.20;61.40;;;;;;5043665;28;87380;-37
2022/10/18 14:07:25;;;;;;;;;;;11.20;61.10;;;;;;5043290;28;87830;-37
2022/10/18 14:09:52;;;;;;;;;;;11.20;61.30;;;;;;5043623;28;87034;-38
2022/10/18 14:12:23;;;;;;;;;;;11.30;61.30;;;;;;5043941;27;87113;-37
2022/10/18 14:15:09;;;;;;;;;;;11.30;61.60;;;;;;5043148;28;88291;-38
2022/10/18 14:17:37;;;;;;;;;;;11.30;61.30;;;;;;5043481;28;87070;-37
2022/10/18 14:20:21;;;;;;;;;;;11.30;61.30;;;;;;5045327;27;88028;-38
2022/10/18 14:22:52;;;;;;;;;;;11.30;61.20;;;;;;5043296;28;87035;-38
2022/10/18 14:25:24;;;;;;;;;;;11.30;61.20;;;;;;5043507;28;87448;-38
2022/10/18 14:28:01;;;;;;;;;;;11.30;61.60;;;;;;5043025;28;87433;-38
2022/10/18 14:30:27;;;;;;;;;;;11.40;61.40;;;;;;5043583;28;86935;-37
2022/10/18 14:32:55;;;;;;;;;;;11.40;61.00;;;;;;5043324;28;87558;-38
2022/10/18 14:35:22;;;;;;;;;;;11.40;61.40;;;;;;5042803;28;88006;-38